Aliaksandr Gordeichuk

Baş Scout - Niva
13 Oca 2028
Perşembe
İşlem

Kişilik

Uyum (20) Hırs (3) Tartışma (1) Sadakat (19) Baskı (8) Profesyonellik (2) Sportmenlik (11) Mizaç (15)

Profil

Antrenörlük Tarzı Demokratik
Lisans Ulusal B
Kararlılık 3
İnsan Yönetimi 5
Motivasyon 1
Disiplin 7
İş Memnuniyeti
100%
Yorgunluk
0%
Görev Baş Scout
Maaş 7.2K h/h
Sözleşme 14.03.2028

Performans

Davranış İyi
Antrenman Etkinliği
25%
Oyuncu Gelişimi
35%
Sakatlık Önleme
5%
Taktik Uygulama
20%

Son Olaylar

Sözleşme müzakeresi başladı şimdi
Bir oyuncu değerlendirdi şimdi
Oyuncu izleme toplantısına katıldı şimdi
Oyuncu izleme toplantısına katıldı şimdi
Sözleşme müzakeresi başladı şimdi
Sözleşme müzakeresi başladı 7gün önce
Bir oyuncu değerlendirdi 7gün önce
Sözleşme müzakeresi başladı 7gün önce

Şu Anda İzliyor

118
Oyuncu Kulüp Durum Yetenek Güven İzlendi Son Gözlem Son Oy
Omar Popov Dinamo St Petersburg Aktif 77 / 88 40% 1 11.01.2028 -
Gonzalo Gutiérrez San Martín Aktif 116 / 85 40% 1 11.01.2028 -
Vadim Konyukhov SKA Khabarovsk Aktif 87 / 97 40% 1 10.01.2028 -
Amir Djumaev Nart Aktif 82 / 87 40% 1 10.01.2028 -
Mikhail Osinov Spartak Tambov Aktif 69 / 66 40% 1 08.01.2028 -
Gonzalo Asis Almagro Aktif 132 / 120 40% 1 08.01.2028 -
Alexey Berdnikov Chelyabinsk Aktif 94 / 106 40% 1 05.01.2028 -
Emil Gallyamov Amkar Aktif 74 / 81 40% 1 05.01.2028 -
Enzo Martínez Almagro Aktif 106 / 112 40% 1 04.01.2028 -
Ilsur Valeev Kosmos Aktif 65 / 79 40% 1 04.01.2028 -
Zaid Koblev Druzhba Aktif 74 / 83 40% 1 03.01.2028 -
Denis Yakuba Dinamo Stavropol Aktif 104 / 110 40% 1 03.01.2028 -
Vyacheslav Purak Rubin Yalta Aktif 79 / 83 40% 3 07.09.2027 -
Anton Gurylev Pobeda Aktif 63 / 72 40% 3 07.09.2027 -
Ilya Tishurov Osipovichi Aktif 84 / 88 40% 1 09.08.2027 -
Agustín Díaz Estudiantes de Caracas Aktif 82 / 99 40% 1 09.08.2027 -
Ezequiel Ramírez All Boys Aktif 109 / 119 40% 1 27.07.2027 -
Motiejus Burba Kauno Zalgiris Aktif 99 / 87 40% 1 27.07.2027 -
Muzaffar Gurbanov Dnepr Mogilev Aktif 68 / 99 40% 1 19.07.2027 -
Rrok Toma Partizani Tirana Aktif 93 / 105 40% 1 19.07.2027 -
Stanislav Lomako Belshina Aktif 60 / 63 44% 1 28.06.2027 -
Nikita Rozhkov Dinamo Stavropol Aktif 66 / 75 40% 5 13.06.2027 -
Fabrizio Fazzolari Strogino Aktif 76 / 61 40% 1 13.06.2027 -
Konstantin Simakov Torpedo Vladimir Aktif 73 / 63 40% 2 11.06.2027 -
Sergey Serchenkov Kuban Holding Aktif 67 / 74 40% 2 11.06.2027 -
Denis Rubanov Dinamo Stavropol Aktif 79 / 93 40% 6 09.06.2027 -
Artem Stepanovich Sevastopol Aktif 93 / 94 40% 3 08.06.2027 -
Savva Kotov Dinamo Barnaul Aktif 78 / 65 40% 1 08.06.2027 -
Maxim Sergeev Spartak Tambov Aktif 64 / 80 40% 1 07.06.2027 -
Bekkhan Aliev Sevastopol Aktif 63 / 86 40% 2 06.06.2027 -
Daniil Arsentjev Orel Aktif 81 / 76 40% 7 04.06.2027 -
Alexandr Goryachkin Kvant Aktif 83 / 80 40% 4 04.06.2027 -
Magomed Nasibov Pobeda Aktif 96 / 77 40% 4 03.06.2027 -
Ilja Gruznov Khimik Aktif 75 / 86 40% 6 03.06.2027 -
Alexey Shulgin Spartak Tambov Aktif 72 / 76 40% 4 02.06.2027 -
Dmitry Kuptsov Spartak Tambov Aktif 88 / 76 40% 5 02.06.2027 -
Dmitry Prokhorov Rubin Aktif 72 / 83 40% 3 31.05.2027 -
Jonah James Mosta Aktif 77 / 63 40% 1 31.05.2027 -
Carlos Zepeda Strogino Aktif 75 / 84 40% 1 29.05.2027 -
Anton Betyuzhnov Dinamo Vologda Aktif 90 / 77 40% 3 28.05.2027 -
Alexandr Komissarov Torpedo Vladimir Aktif 81 / 71 40% 3 25.05.2027 -
Nikita Tereschuk Leningradets Aktif 71 / 90 40% 1 23.05.2027 -
Igor Bugaenko Orel Aktif 70 / 62 40% 3 22.05.2027 -
Daniil Kondrakov KDV Tomsk Aktif 96 / 86 40% 3 19.05.2027 -
Tamaz Topuria Mashuk Aktif 80 / 87 40% 2 18.05.2027 -
Dmitry Pereverzev Nart Aktif 66 / 80 40% 3 16.05.2027 -
Mikhail Zabotkin Druzhba Aktif 74 / 80 40% 1 16.05.2027 -
Danila Yezhkov Dinamo Vologda Reddedildi 95 / 76 40% 3 13.05.2027 -
Ville Nilsson Angusht Aktif 80 / 68 40% 1 12.05.2027 -
Nikita Kolesin Zenit Penza Aktif 66 / 54 40% 2 09.05.2027 -
Nikita Pogrebnev Ryazan Aktif 76 / 81 40% 2 07.05.2027 -
Rashid Salimov Pobeda Aktif 80 / 58 40% 1 07.05.2027 -
Ilja Stefanovich Leningradets Reddedildi 92 / 98 40% 7 04.05.2027 -
Ilja Yurchenko Dinamo Vladivostok Aktif 71 / 88 40% 3 04.05.2027 -
Anton Kamyshenko Kolomna Aktif 76 / 74 40% 2 03.05.2027 -
Vladislav Morozov Volgar Aktif 99 / 90 40% 2 01.05.2027 -
Sergey Gaiduk Salyut Aktif 83 / 87 40% 2 28.04.2027 -
Maxim Dmitriev Tyumen Aktif 78 / 84 40% 1 28.04.2027 -
Beka Djanelidze Rubin Yalta Aktif 82 / 79 40% 3 27.04.2027 -
Karim Giraev Veles Aktif 80 / 78 40% 1 26.04.2027 -
Bilal Bilalov Dinamo Kirov Aktif 85 / 94 40% 1 22.04.2027 -
Evgeny Voronin Volga Aktif 99 / 100 40% 1 21.04.2027 -
Yegor Ponomarev Tver Aktif 86 / 73 40% 3 19.04.2027 -
Nikita Kuzin Kaluga Aktif 98 / 84 40% 1 18.04.2027 -
Nikita Kireev Dinamo Vologda Aktif 93 / 83 40% 5 17.04.2027 -
Alexandr Shlenkin Dinamo Bryansk Aktif 79 / 70 40% 2 16.04.2027 -
Shamil Saaduev Pobeda Aktif 86 / 67 40% 2 12.04.2027 -
Mikhail Gainov Dinamo Stavropol Aktif 75 / 91 40% 2 08.04.2027 -
Alimkhan Alimkhanov Torpedo Vladimir Aktif 74 / 80 40% 2 04.04.2027 -
Arseny Vainer Nosta Aktif 73 / 74 40% 4 29.03.2027 -
Alexandr Konev Salyut Aktif 71 / 60 40% 1 27.03.2027 -
Sergey Gribov Dinamo Bryansk Aktif 69 / 69 40% 3 21.03.2027 -
Pavel Popov Volna Aktif 77 / 95 40% 4 20.03.2027 -
Dmitry Usov Textilschik Aktif 81 / 91 40% 2 20.03.2027 -
Makhach Abdulkhamidov Alania Aktif 73 / 87 40% 1 19.03.2027 -
Daniil Konoplev Dinamo Bryansk Aktif 95 / 86 40% 3 13.03.2027 -
Maxim Kutovoy Salyut Aktif 83 / 85 40% 1 09.03.2027 -
Aziz Gaziev Dinamo St Petersburg Aktif 75 / 79 40% 1 04.03.2027 -
Denis Beskorovainy Saturn Aktif 77 / 69 40% 1 03.03.2027 -
Vladislav Faskhutdinov Salyut Aktif 73 / 59 40% 1 02.03.2027 -
Ilja Vorontsov Orel Aktif 61 / 58 40% 1 02.03.2027 -
Matvey Ivakhnov Mashuk Aktif 73 / 79 40% 1 01.03.2027 -
Ilja Zhigulev Chernomorets Aktif 94 / 93 40% 1 26.01.2027 -
Alexey Logvinov Kosmos Aktif 74 / 54 40% 1 26.01.2027 -
Mark Polushin Astrakhan Aktif 55 / 80 40% 1 19.01.2027 -
Nikolay Maximov Krylya Sovetov Aktif 57 / 60 40% 2 09.01.2027 -
Ivan Gulko KAMAZ Aktif 76 / 79 40% 2 07.01.2027 -
Danil Polyakh Rubin Yalta Aktif 79 / 84 40% 1 06.01.2027 Daha Fazla Bilgi
Oleg Smirnov Veles Aktif 79 / 88 40% 1 01.01.2027 -
Alexandr Dolgov Amkar Aktif 98 / 88 40% 1 30.12.2026 -
Denis Semin Metallurg Aktif 79 / 78 40% 2 29.12.2026 -
Gleb Bakharev Kaluga Aktif 72 / 74 40% 1 20.12.2026 -
Vitaly Dunay (Karpenko) Chaika Aktif 78 / 76 40% 1 19.12.2026 -
Nikita Simdyankin KDV Tomsk Aktif 97 / 75 40% 1 19.12.2026 -
Ivan Matyushenko Alania Aktif 92 / 77 40% 1 16.12.2026 -
Daniil Zuev Khimik Aktif 96 / 84 40% 1 11.12.2026 -
Aleksej Golijanin Sokol Aktif 91 / 93 40% 1 08.12.2026 -
Ivan Oborocha Metallurg Aktif 56 / 55 40% 1 07.12.2026 -
Nikita Khlusov Legion Aktif 63 / 74 40% 1 30.11.2026 -
Daniil Agureev Amkar Aktif 95 / 69 40% 1 27.11.2026 -
Leon Sabua Fakel Aktif 99 / 112 40% 1 27.11.2026 -
Ilja Porokhov Shinnik Aktif 78 / 101 40% 1 17.11.2026 -
Bruno Hernández Cerro Largo Aktif 107 / 119 40% 1 17.11.2026 -
Vladlen Anikeev Vitebsk Aktif 65 / 94 40% 1 16.11.2026 -
Alexandr Butko Isloch Aktif 96 / 94 40% 1 16.11.2026 -
Andrey Solovey Slavia Mozyr Aktif 88 / 91 40% 1 13.11.2026 -
Vladislav Chebotar Slutsk Aktif 79 / 79 40% 1 13.11.2026 -
Roman Gribovskiy Smorgon Aktif 75 / 74 40% 1 10.11.2026 -
Maxim Budko Torpedo-BelAZ Aktif 74 / 69 40% 1 06.11.2026 -
Evgeniy Shevchenko Slavia Mozyr Aktif 93 / 81 40% 1 05.11.2026 -
Surkhaikhan Abdullaev KAMAZ Aktif 100 / 78 40% 1 04.11.2026 -
Federico Amestoy Miramar Misiones Aktif 59 / 98 40% 1 02.11.2026 -
Kirill Zabelin Dnepr Mogilev Aktif 71 / 92 40% 1 07.09.2026 -
Danila Slesarchuk Smorgon Aktif 81 / 101 40% 1 07.09.2026 -
Fabricio Díaz San Lorenzo Aktif 107 / 100 40% 1 24.08.2026 -
Exequiel Quintana Temperley Aktif 98 / 110 40% 1 24.08.2026 -
Lukas Klimavicius Utenis Aktif 50 / 52 40% 1 17.08.2026 -
Godwin Chinemeren Nomme Kalju Aktif 69 / 84 40% 1 01.08.2026 -